sensor_id;sensor_type;location;lat;lon;timestamp;temperature;humidity
73688;SHT30;62257;48.376;-4.378;2022-07-19T00:01:28;27.47;42.51
73688;SHT30;62257;48.376;-4.378;2022-07-19T00:03:56;27.38;42.08
73688;SHT30;62257;48.376;-4.378;2022-07-19T00:06:21;27.26;42.89
73688;SHT30;62257;48.376;-4.378;2022-07-19T00:08:46;26.92;45.26
73688;SHT30;62257;48.376;-4.378;2022-07-19T00:11:12;26.74;45.62
73688;SHT30;62257;48.376;-4.378;2022-07-19T00:13:37;26.50;47.82
73688;SHT30;62257;48.376;-4.378;2022-07-19T00:16:03;26.26;48.10
73688;SHT30;62257;48.376;-4.378;2022-07-19T00:18:28;25.91;50.17
73688;SHT30;62257;48.376;-4.378;2022-07-19T00:20:54;25.60;52.01
73688;SHT30;62257;48.376;-4.378;2022-07-19T00:23:19;25.36;52.98
73688;SHT30;62257;48.376;-4.378;2022-07-19T00:25:44;25.20;53.08
73688;SHT30;62257;48.376;-4.378;2022-07-19T00:28:10;25.00;53.32
73688;SHT30;62257;48.376;-4.378;2022-07-19T00:30:35;24.88;54.83
73688;SHT30;62257;48.376;-4.378;2022-07-19T00:33:01;24.75;54.88
73688;SHT30;62257;48.376;-4.378;2022-07-19T00:35:29;24.62;55.87
73688;SHT30;62257;48.376;-4.378;2022-07-19T00:37:55;24.50;56.77
73688;SHT30;62257;48.376;-4.378;2022-07-19T00:40:22;24.25;57.72
73688;SHT30;62257;48.376;-4.378;2022-07-19T00:42:48;24.10;59.64
73688;SHT30;62257;48.376;-4.378;2022-07-19T00:45:13;24.00;59.52
73688;SHT30;62257;48.376;-4.378;2022-07-19T00:47:40;23.86;61.18
73688;SHT30;62257;48.376;-4.378;2022-07-19T00:50:06;23.85;59.74
73688;SHT30;62257;48.376;-4.378;2022-07-19T00:52:32;23.73;60.39
73688;SHT30;62257;48.376;-4.378;2022-07-19T00:54:58;23.61;63.79
73688;SHT30;62257;48.376;-4.378;2022-07-19T00:57:24;23.51;64.43
73688;SHT30;62257;48.376;-4.378;2022-07-19T00:59:53;23.27;65.77
73688;SHT30;62257;48.376;-4.378;2022-07-19T01:02:19;23.14;66.36
73688;SHT30;62257;48.376;-4.378;2022-07-19T01:04:44;23.06;66.55
73688;SHT30;62257;48.376;-4.378;2022-07-19T01:07:10;22.92;67.54
73688;SHT30;62257;48.376;-4.378;2022-07-19T01:09:40;22.70;68.68
73688;SHT30;62257;48.376;-4.378;2022-07-19T01:12:06;22.69;67.37
73688;SHT30;62257;48.376;-4.378;2022-07-19T01:14:32;22.55;68.46
73688;SHT30;62257;48.376;-4.378;2022-07-19T01:17:01;22.46;69.40
73688;SHT30;62257;48.376;-4.378;2022-07-19T01:19:26;22.42;69.69
73688;SHT30;62257;48.376;-4.378;2022-07-19T01:21:52;22.37;69.68
73688;SHT30;62257;48.376;-4.378;2022-07-19T01:24:17;22.38;68.74
73688;SHT30;62257;48.376;-4.378;2022-07-19T01:26:43;22.21;70.73
73688;SHT30;62257;48.376;-4.378;2022-07-19T01:29:08;22.07;70.04
73688;SHT30;62257;48.376;-4.378;2022-07-19T01:31:38;22.01;70.80
73688;SHT30;62257;48.376;-4.378;2022-07-19T01:34:04;22.02;71.25
73688;SHT30;62257;48.376;-4.378;2022-07-19T01:36:29;22.00;69.40
73688;SHT30;62257;48.376;-4.378;2022-07-19T01:38:55;22.04;71.18
73688;SHT30;62257;48.376;-4.378;2022-07-19T01:41:20;21.96;71.44
73688;SHT30;62257;48.376;-4.378;2022-07-19T01:43:46;21.91;70.26
73688;SHT30;62257;48.376;-4.378;2022-07-19T01:46:11;21.89;71.42
73688;SHT30;62257;48.376;-4.378;2022-07-19T01:48:36;21.87;71.10
73688;SHT30;62257;48.376;-4.378;2022-07-19T01:51:02;21.74;71.65
73688;SHT30;62257;48.376;-4.378;2022-07-19T01:53:27;21.74;68.26
73688;SHT30;62257;48.376;-4.378;2022-07-19T01:55:53;21.73;70.17
73688;SHT30;62257;48.376;-4.378;2022-07-19T01:58:18;21.62;71.80
73688;SHT30;62257;48.376;-4.378;2022-07-19T02:00:44;21.46;73.38
73688;SHT30;62257;48.376;-4.378;2022-07-19T02:03:10;21.35;72.03
73688;SHT30;62257;48.376;-4.378;2022-07-19T02:05:35;21.32;71.68
73688;SHT30;62257;48.376;-4.378;2022-07-19T02:08:01;21.28;72.53
73688;SHT30;62257;48.376;-4.378;2022-07-19T02:10:27;21.19;73.74
73688;SHT30;62257;48.376;-4.378;2022-07-19T02:12:52;21.15;70.87
73688;SHT30;62257;48.376;-4.378;2022-07-19T02:15:17;21.16;71.48
73688;SHT30;62257;48.376;-4.378;2022-07-19T02:17:43;21.19;71.76
73688;SHT30;62257;48.376;-4.378;2022-07-19T02:20:09;21.01;72.94
73688;SHT30;62257;48.376;-4.378;2022-07-19T02:22:34;20.90;74.17
73688;SHT30;62257;48.376;-4.378;2022-07-19T02:25:00;20.81;74.43
73688;SHT30;62257;48.376;-4.378;2022-07-19T02:27:25;20.67;75.01
73688;SHT30;62257;48.376;-4.378;2022-07-19T02:29:51;20.53;75.69
73688;SHT30;62257;48.376;-4.378;2022-07-19T02:32:17;20.61;74.33
73688;SHT30;62257;48.376;-4.378;2022-07-19T02:34:42;20.61;72.97
73688;SHT30;62257;48.376;-4.378;2022-07-19T02:37:07;20.49;75.17
73688;SHT30;62257;48.376;-4.378;2022-07-19T02:39:33;20.43;74.29
73688;SHT30;62257;48.376;-4.378;2022-07-19T02:41:58;20.39;73.83
73688;SHT30;62257;48.376;-4.378;2022-07-19T02:44:24;20.43;75.56
73688;SHT30;62257;48.376;-4.378;2022-07-19T02:46:49;20.43;75.54
73688;SHT30;62257;48.376;-4.378;2022-07-19T02:49:15;20.32;76.33
73688;SHT30;62257;48.376;-4.378;2022-07-19T02:51:41;20.33;74.49
73688;SHT30;62257;48.376;-4.378;2022-07-19T02:54:06;20.22;77.46
73688;SHT30;62257;48.376;-4.378;2022-07-19T02:56:31;20.19;75.42
73688;SHT30;62257;48.376;-4.378;2022-07-19T02:58:57;20.30;75.55
73688;SHT30;62257;48.376;-4.378;2022-07-19T03:01:22;20.36;76.24
73688;SHT30;62257;48.376;-4.378;2022-07-19T03:03:48;20.25;77.17
73688;SHT30;62257;48.376;-4.378;2022-07-19T03:06:15;20.15;76.50
73688;SHT30;62257;48.376;-4.378;2022-07-19T03:08:41;20.19;76.12
73688;SHT30;62257;48.376;-4.378;2022-07-19T03:11:07;20.19;77.88
73688;SHT30;62257;48.376;-4.378;2022-07-19T03:13:32;20.23;77.33
73688;SHT30;62257;48.376;-4.378;2022-07-19T03:15:58;20.16;77.18
73688;SHT30;62257;48.376;-4.378;2022-07-19T03:18:23;20.09;77.04
73688;SHT30;62257;48.376;-4.378;2022-07-19T03:20:49;20.11;78.71
73688;SHT30;62257;48.376;-4.378;2022-07-19T03:23:14;20.18;76.85
73688;SHT30;62257;48.376;-4.378;2022-07-19T03:25:40;20.21;77.44
73688;SHT30;62257;48.376;-4.378;2022-07-19T03:28:05;20.22;78.50
73688;SHT30;62257;48.376;-4.378;2022-07-19T03:30:30;20.26;77.54
73688;SHT30;62257;48.376;-4.378;2022-07-19T03:32:57;20.26;86.06
73688;SHT30;62257;48.376;-4.378;2022-07-19T03:35:23;20.19;85.99
73688;SHT30;62257;48.376;-4.378;2022-07-19T03:37:48;20.11;85.68
73688;SHT30;62257;48.376;-4.378;2022-07-19T03:40:14;19.98;85.16
73688;SHT30;62257;48.376;-4.378;2022-07-19T03:42:39;19.94;83.13
73688;SHT30;62257;48.376;-4.378;2022-07-19T03:45:05;19.96;83.05
73688;SHT30;62257;48.376;-4.378;2022-07-19T03:47:31;20.02;83.48
73688;SHT30;62257;48.376;-4.378;2022-07-19T03:49:57;20.06;85.07
73688;SHT30;62257;48.376;-4.378;2022-07-19T03:52:23;20.13;85.04
73688;SHT30;62257;48.376;-4.378;2022-07-19T03:54:49;20.18;84.21
73688;SHT30;62257;48.376;-4.378;2022-07-19T03:57:14;20.15;82.43
73688;SHT30;62257;48.376;-4.378;2022-07-19T03:59:40;20.21;83.94
73688;SHT30;62257;48.376;-4.378;2022-07-19T04:02:05;20.29;82.63
73688;SHT30;62257;48.376;-4.378;2022-07-19T04:04:31;20.29;82.36
73688;SHT30;62257;48.376;-4.378;2022-07-19T04:06:57;20.26;83.48
73688;SHT30;62257;48.376;-4.378;2022-07-19T04:09:22;20.23;82.22
73688;SHT30;62257;48.376;-4.378;2022-07-19T04:11:48;20.30;83.30
73688;SHT30;62257;48.376;-4.378;2022-07-19T04:14:13;20.39;83.15
73688;SHT30;62257;48.376;-4.378;2022-07-19T04:16:39;20.50;83.97
73688;SHT30;62257;48.376;-4.378;2022-07-19T04:19:04;20.49;82.11
73688;SHT30;62257;48.376;-4.378;2022-07-19T04:21:30;20.50;83.13
73688;SHT30;62257;48.376;-4.378;2022-07-19T04:23:55;20.44;81.95
73688;SHT30;62257;48.376;-4.378;2022-07-19T04:26:20;20.43;82.60
73688;SHT30;62257;48.376;-4.378;2022-07-19T04:28:46;20.40;83.95
73688;SHT30;62257;48.376;-4.378;2022-07-19T04:31:11;20.33;85.27
73688;SHT30;62257;48.376;-4.378;2022-07-19T04:33:37;20.44;83.37
73688;SHT30;62257;48.376;-4.378;2022-07-19T04:36:02;20.44;81.53
73688;SHT30;62257;48.376;-4.378;2022-07-19T04:38:28;20.44;81.71
73688;SHT30;62257;48.376;-4.378;2022-07-19T04:40:53;20.33;82.61
73688;SHT30;62257;48.376;-4.378;2022-07-19T04:43:19;19.99;91.48
73688;SHT30;62257;48.376;-4.378;2022-07-19T04:45:44;19.53;90.12
73688;SHT30;62257;48.376;-4.378;2022-07-19T04:48:10;19.45;92.44
73688;SHT30;62257;48.376;-4.378;2022-07-19T04:50:36;19.33;91.85
73688;SHT30;62257;48.376;-4.378;2022-07-19T04:53:02;19.24;92.93
73688;SHT30;62257;48.376;-4.378;2022-07-19T04:55:27;19.27;93.24
73688;SHT30;62257;48.376;-4.378;2022-07-19T04:57:53;19.27;93.67
73688;SHT30;62257;48.376;-4.378;2022-07-19T05:00:18;19.31;93.50
73688;SHT30;62257;48.376;-4.378;2022-07-19T05:02:44;19.33;93.69
73688;SHT30;62257;48.376;-4.378;2022-07-19T05:05:10;19.29;94.75
73688;SHT30;62257;48.376;-4.378;2022-07-19T05:07:36;19.26;96.86
73688;SHT30;62257;48.376;-4.378;2022-07-19T05:10:03;19.12;97.14
73688;SHT30;62257;48.376;-4.378;2022-07-19T05:12:29;19.13;97.32
73688;SHT30;62257;48.376;-4.378;2022-07-19T05:14:55;19.05;97.32
73688;SHT30;62257;48.376;-4.378;2022-07-19T05:17:20;18.96;97.47
73688;SHT30;62257;48.376;-4.378;2022-07-19T05:19:46;18.78;97.70
73688;SHT30;62257;48.376;-4.378;2022-07-19T05:22:12;18.72;97.74
73688;SHT30;62257;48.376;-4.378;2022-07-19T05:24:37;18.68;97.80
73688;SHT30;62257;48.376;-4.378;2022-07-19T05:27:03;18.71;97.89
73688;SHT30;62257;48.376;-4.378;2022-07-19T05:29:28;18.74;97.93
73688;SHT30;62257;48.376;-4.378;2022-07-19T05:31:54;18.72;98.08
73688;SHT30;62257;48.376;-4.378;2022-07-19T05:34:19;18.76;98.16
73688;SHT30;62257;48.376;-4.378;2022-07-19T05:36:44;18.60;91.86
73688;SHT30;62257;48.376;-4.378;2022-07-19T06:37:37;20.15;96.57
73688;SHT30;62257;48.376;-4.378;2022-07-19T06:40:03;20.22;96.63
73688;SHT30;62257;48.376;-4.378;2022-07-19T06:42:29;20.23;97.04
73688;SHT30;62257;48.376;-4.378;2022-07-19T06:44:55;20.12;97.54
73688;SHT30;62257;48.376;-4.378;2022-07-19T06:47:21;20.19;97.71
73688;SHT30;62257;48.376;-4.378;2022-07-19T06:49:46;20.23;97.85
73688;SHT30;62257;48.376;-4.378;2022-07-19T06:52:12;20.29;98.09
73688;SHT30;62257;48.376;-4.378;2022-07-19T06:54:37;20.37;98.39
73688;SHT30;62257;48.376;-4.378;2022-07-19T06:57:03;20.36;98.06
73688;SHT30;62257;48.376;-4.378;2022-07-19T06:59:28;20.69;98.48
73688;SHT30;62257;48.376;-4.378;2022-07-19T07:01:54;21.05;98.59
73688;SHT30;62257;48.376;-4.378;2022-07-19T07:04:19;21.29;98.97
73688;SHT30;62257;48.376;-4.378;2022-07-19T07:06:44;21.31;98.51
73688;SHT30;62257;48.376;-4.378;2022-07-19T07:09:10;21.46;98.78
73688;SHT30;62257;48.376;-4.378;2022-07-19T07:11:35;21.69;98.85
73688;SHT30;62257;48.376;-4.378;2022-07-19T07:14:01;22.00;98.46
73688;SHT30;62257;48.376;-4.378;2022-07-19T07:16:26;22.29;98.75
73688;SHT30;62257;48.376;-4.378;2022-07-19T07:18:52;22.48;97.84
73688;SHT30;62257;48.376;-4.378;2022-07-19T07:21:17;22.52;96.49
73688;SHT30;62257;48.376;-4.378;2022-07-19T07:26:08;21.97;91.64
73688;SHT30;62257;48.376;-4.378;2022-07-19T07:28:33;21.76;86.86
73688;SHT30;62257;48.376;-4.378;2022-07-19T07:30:58;21.79;89.42
73688;SHT30;62257;48.376;-4.378;2022-07-19T07:33:24;21.70;83.62
73688;SHT30;62257;48.376;-4.378;2022-07-19T07:35:49;22.19;90.37
73688;SHT30;62257;48.376;-4.378;2022-07-19T07:38:15;22.55;91.48
73688;SHT30;62257;48.376;-4.378;2022-07-19T07:40:40;23.18;81.59
73688;SHT30;62257;48.376;-4.378;2022-07-19T07:43:06;23.73;79.19
73688;SHT30;62257;48.376;-4.378;2022-07-19T07:45:32;24.31;72.71
73688;SHT30;62257;48.376;-4.378;2022-07-19T07:47:58;24.89;73.08
73688;SHT30;62257;48.376;-4.378;2022-07-19T07:50:24;25.46;78.01
73688;SHT30;62257;48.376;-4.378;2022-07-19T07:52:49;25.63;65.49
73688;SHT30;62257;48.376;-4.378;2022-07-19T07:55:15;25.09;69.73
73688;SHT30;62257;48.376;-4.378;2022-07-19T07:57:41;24.50;69.45
73688;SHT30;62257;48.376;-4.378;2022-07-19T08:00:07;24.62;69.04
73688;SHT30;62257;48.376;-4.378;2022-07-19T08:02:42;25.31;69.37
73688;SHT30;62257;48.376;-4.378;2022-07-19T08:05:08;25.74;65.81
73688;SHT30;62257;48.376;-4.378;2022-07-19T08:07:34;25.92;64.34
73688;SHT30;62257;48.376;-4.378;2022-07-19T08:10:01;26.57;63.35
73688;SHT30;62257;48.376;-4.378;2022-07-19T08:12:26;26.98;65.05
73688;SHT30;62257;48.376;-4.378;2022-07-19T08:14:52;27.19;66.81
73688;SHT30;62257;48.376;-4.378;2022-07-19T08:17:17;26.98;66.78
73688;SHT30;62257;48.376;-4.378;2022-07-19T08:19:42;26.56;67.70
73688;SHT30;62257;48.376;-4.378;2022-07-19T08:22:08;26.26;63.30
73688;SHT30;62257;48.376;-4.378;2022-07-19T08:24:33;25.80;70.08
73688;SHT30;62257;48.376;-4.378;2022-07-19T08:26:59;25.72;68.88
73688;SHT30;62257;48.376;-4.378;2022-07-19T08:29:24;26.03;70.69
73688;SHT30;62257;48.376;-4.378;2022-07-19T08:31:50;26.65;70.52
73688;SHT30;62257;48.376;-4.378;2022-07-19T08:34:15;26.68;66.34
73688;SHT30;62257;48.376;-4.378;2022-07-19T08:36:41;26.67;64.46
73688;SHT30;62257;48.376;-4.378;2022-07-19T13:41:16;24.05;66.11
73688;SHT30;62257;48.376;-4.378;2022-07-19T13:43:43;24.07;63.84
73688;SHT30;62257;48.376;-4.378;2022-07-19T15:04:27;23.40;68.09
73688;SHT30;62257;48.376;-4.378;2022-07-19T15:06:53;23.52;64.95
73688;SHT30;62257;48.376;-4.378;2022-07-19T15:09:18;23.72;73.54
73688;SHT30;62257;48.376;-4.378;2022-07-19T15:11:44;23.72;64.11
73688;SHT30;62257;48.376;-4.378;2022-07-19T15:14:10;23.92;64.11
73688;SHT30;62257;48.376;-4.378;2022-07-19T15:16:36;24.02;69.57
73688;SHT30;62257;48.376;-4.378;2022-07-19T15:19:02;24.18;67.53
73688;SHT30;62257;48.376;-4.378;2022-07-19T15:21:27;24.21;68.79
73688;SHT30;62257;48.376;-4.378;2022-07-19T15:23:53;24.14;62.39
73688;SHT30;62257;48.376;-4.378;2022-07-19T15:26:18;23.99;63.26
73688;SHT30;62257;48.376;-4.378;2022-07-19T15:28:44;23.99;63.22
73688;SHT30;62257;48.376;-4.378;2022-07-19T15:31:09;23.89;63.64
73688;SHT30;62257;48.376;-4.378;2022-07-19T15:33:34;23.93;63.29
73688;SHT30;62257;48.376;-4.378;2022-07-19T15:36:00;24.02;63.73
73688;SHT30;62257;48.376;-4.378;2022-07-19T15:38:26;24.03;63.15
73688;SHT30;62257;48.376;-4.378;2022-07-19T15:40:51;24.17;65.82
73688;SHT30;62257;48.376;-4.378;2022-07-19T15:43:18;24.13;64.59
73688;SHT30;62257;48.376;-4.378;2022-07-19T15:45:44;24.05;64.75
73688;SHT30;62257;48.376;-4.378;2022-07-19T15:48:10;23.97;64.43
73688;SHT30;62257;48.376;-4.378;2022-07-19T15:50:36;23.96;62.03
73688;SHT30;62257;48.376;-4.378;2022-07-19T15:53:11;23.97;68.42
73688;SHT30;62257;48.376;-4.378;2022-07-19T15:55:37;23.90;60.98
73688;SHT30;62257;48.376;-4.378;2022-07-19T15:58:03;24.02;62.87
73688;SHT30;62257;48.376;-4.378;2022-07-19T16:00:28;23.99;63.84
73688;SHT30;62257;48.376;-4.378;2022-07-19T16:02:56;23.92;61.39
73688;SHT30;62257;48.376;-4.378;2022-07-19T16:05:21;23.97;61.60
73688;SHT30;62257;48.376;-4.378;2022-07-19T16:07:47;24.06;61.20
73688;SHT30;62257;48.376;-4.378;2022-07-19T16:10:13;24.07;61.42
73688;SHT30;62257;48.376;-4.378;2022-07-19T16:12:38;24.25;67.44
73688;SHT30;62257;48.376;-4.378;2022-07-19T16:15:04;24.18;60.08
73688;SHT30;62257;48.376;-4.378;2022-07-19T16:17:30;24.20;59.89
73688;SHT30;62257;48.376;-4.378;2022-07-19T16:19:57;24.37;60.87
73688;SHT30;62257;48.376;-4.378;2022-07-19T16:22:23;24.38;65.19
73688;SHT30;62257;48.376;-4.378;2022-07-19T16:24:49;24.43;62.48
73688;SHT30;62257;48.376;-4.378;2022-07-19T16:27:16;24.37;64.44
73688;SHT30;62257;48.376;-4.378;2022-07-19T16:29:41;24.45;61.79
73688;SHT30;62257;48.376;-4.378;2022-07-19T16:32:07;24.57;67.83
73688;SHT30;62257;48.376;-4.378;2022-07-19T16:34:32;24.52;61.23
73688;SHT30;62257;48.376;-4.378;2022-07-19T16:36:58;24.52;62.55
73688;SHT30;62257;48.376;-4.378;2022-07-19T16:39:24;24.76;63.13
73688;SHT30;62257;48.376;-4.378;2022-07-19T16:41:49;24.95;63.75
73688;SHT30;62257;48.376;-4.378;2022-07-19T16:44:14;25.05;61.03
73688;SHT30;62257;48.376;-4.378;2022-07-19T16:46:40;24.96;63.60
73688;SHT30;62257;48.376;-4.378;2022-07-19T16:49:05;24.88;66.19
73688;SHT30;62257;48.376;-4.378;2022-07-19T16:51:31;24.98;60.81
73688;SHT30;62257;48.376;-4.378;2022-07-19T16:53:57;25.15;60.11
73688;SHT30;62257;48.376;-4.378;2022-07-19T16:56:23;25.43;65.53
73688;SHT30;62257;48.376;-4.378;2022-07-19T16:58:48;25.51;64.57
73688;SHT30;62257;48.376;-4.378;2022-07-19T17:01:14;25.48;67.10
73688;SHT30;62257;48.376;-4.378;2022-07-19T17:03:39;25.30;66.83
73688;SHT30;62257;48.376;-4.378;2022-07-19T17:06:05;25.00;61.35
73688;SHT30;62257;48.376;-4.378;2022-07-19T17:08:32;24.72;61.98
73688;SHT30;62257;48.376;-4.378;2022-07-19T17:10:57;24.50;61.32
73688;SHT30;62257;48.376;-4.378;2022-07-19T17:13:23;24.40;66.45
73688;SHT30;62257;48.376;-4.378;2022-07-19T17:15:49;24.41;68.80
73688;SHT30;62257;48.376;-4.378;2022-07-19T17:18:14;24.51;63.27
73688;SHT30;62257;48.376;-4.378;2022-07-19T17:20:40;24.64;67.55
73688;SHT30;62257;48.376;-4.378;2022-07-19T17:23:05;24.69;64.04
73688;SHT30;62257;48.376;-4.378;2022-07-19T17:25:31;24.81;65.81
73688;SHT30;62257;48.376;-4.378;2022-07-19T17:27:56;24.88;73.93
73688;SHT30;62257;48.376;-4.378;2022-07-19T17:30:22;24.79;61.80
73688;SHT30;62257;48.376;-4.378;2022-07-19T17:32:49;24.72;65.94
73688;SHT30;62257;48.376;-4.378;2022-07-19T17:35:15;24.60;64.44
73688;SHT30;62257;48.376;-4.378;2022-07-19T17:37:40;24.52;65.65
73688;SHT30;62257;48.376;-4.378;2022-07-19T17:40:07;24.54;61.99
73688;SHT30;62257;48.376;-4.378;2022-07-19T17:42:32;24.44;62.74
73688;SHT30;62257;48.376;-4.378;2022-07-19T17:44:58;24.27;65.49
73688;SHT30;62257;48.376;-4.378;2022-07-19T17:47:23;24.40;65.95
73688;SHT30;62257;48.376;-4.378;2022-07-19T17:49:52;24.41;74.27
73688;SHT30;62257;48.376;-4.378;2022-07-19T17:52:18;24.34;78.28
73688;SHT30;62257;48.376;-4.378;2022-07-19T17:54:43;24.33;67.18
73688;SHT30;62257;48.376;-4.378;2022-07-19T17:57:09;24.30;66.22
73688;SHT30;62257;48.376;-4.378;2022-07-19T17:59:34;24.20;67.86
73688;SHT30;62257;48.376;-4.378;2022-07-19T18:02:00;24.14;70.54
73688;SHT30;62257;48.376;-4.378;2022-07-19T18:04:25;24.16;69.28
73688;SHT30;62257;48.376;-4.378;2022-07-19T18:06:50;24.17;69.61
73688;SHT30;62257;48.376;-4.378;2022-07-19T18:09:16;24.28;73.77
73688;SHT30;62257;48.376;-4.378;2022-07-19T18:11:41;24.24;62.97
73688;SHT30;62257;48.376;-4.378;2022-07-19T18:14:07;24.20;67.67
73688;SHT30;62257;48.376;-4.378;2022-07-19T18:16:34;24.20;66.18
73688;SHT30;62257;48.376;-4.378;2022-07-19T18:19:00;24.09;65.23
73688;SHT30;62257;48.376;-4.378;2022-07-19T18:21:25;23.87;65.64
73688;SHT30;62257;48.376;-4.378;2022-07-19T18:23:51;23.86;65.04
73688;SHT30;62257;48.376;-4.378;2022-07-19T18:26:16;23.76;64.50
73688;SHT30;62257;48.376;-4.378;2022-07-19T18:28:42;23.78;67.80
73688;SHT30;62257;48.376;-4.378;2022-07-19T18:31:07;23.78;65.17
73688;SHT30;62257;48.376;-4.378;2022-07-19T18:33:32;23.75;67.86
73688;SHT30;62257;48.376;-4.378;2022-07-19T18:35:58;23.68;66.59
73688;SHT30;62257;48.376;-4.378;2022-07-19T18:38:23;23.45;63.85
73688;SHT30;62257;48.376;-4.378;2022-07-19T18:40:49;23.47;68.98
73688;SHT30;62257;48.376;-4.378;2022-07-19T18:43:14;23.38;69.55
73688;SHT30;62257;48.376;-4.378;2022-07-19T18:45:40;23.11;69.24
73688;SHT30;62257;48.376;-4.378;2022-07-19T18:48:05;23.00;66.47
73688;SHT30;62257;48.376;-4.378;2022-07-19T18:50:31;22.86;68.29
73688;SHT30;62257;48.376;-4.378;2022-07-19T18:52:56;22.75;70.19
73688;SHT30;62257;48.376;-4.378;2022-07-19T18:55:21;22.59;69.59
73688;SHT30;62257;48.376;-4.378;2022-07-19T18:57:47;22.38;67.55
73688;SHT30;62257;48.376;-4.378;2022-07-19T19:00:13;22.29;73.53
73688;SHT30;62257;48.376;-4.378;2022-07-19T19:02:42;22.27;68.35
73688;SHT30;62257;48.376;-4.378;2022-07-19T19:05:08;22.27;72.18
73688;SHT30;62257;48.376;-4.378;2022-07-19T19:07:33;22.21;69.29
73688;SHT30;62257;48.376;-4.378;2022-07-19T19:09:59;22.02;68.69
73688;SHT30;62257;48.376;-4.378;2022-07-19T19:12:24;22.00;74.60
73688;SHT30;62257;48.376;-4.378;2022-07-19T19:14:50;21.96;71.69
73688;SHT30;62257;48.376;-4.378;2022-07-19T19:17:15;21.91;73.87
73688;SHT30;62257;48.376;-4.378;2022-07-19T19:19:42;21.87;72.19
73688;SHT30;62257;48.376;-4.378;2022-07-19T19:22:07;21.77;70.31
73688;SHT30;62257;48.376;-4.378;2022-07-19T19:24:33;21.74;75.32
73688;SHT30;62257;48.376;-4.378;2022-07-19T19:26:58;21.72;71.25
73688;SHT30;62257;48.376;-4.378;2022-07-19T19:29:24;21.72;72.48
73688;SHT30;62257;48.376;-4.378;2022-07-19T19:31:52;21.66;72.68
73688;SHT30;62257;48.376;-4.378;2022-07-19T19:34:17;21.64;71.52
73688;SHT30;62257;48.376;-4.378;2022-07-19T19:36:42;21.64;70.65
73688;SHT30;62257;48.376;-4.378;2022-07-19T19:39:08;21.57;70.89
73688;SHT30;62257;48.376;-4.378;2022-07-19T19:41:34;21.57;71.23
73688;SHT30;62257;48.376;-4.378;2022-07-19T19:43:59;21.54;73.34
73688;SHT30;62257;48.376;-4.378;2022-07-19T19:46:25;21.50;72.40
73688;SHT30;62257;48.376;-4.378;2022-07-19T19:48:51;21.45;73.24
73688;SHT30;62257;48.376;-4.378;2022-07-19T19:51:16;21.29;72.61
73688;SHT30;62257;48.376;-4.378;2022-07-19T19:53:42;21.32;73.59
73688;SHT30;62257;48.376;-4.378;2022-07-19T19:56:13;21.24;74.33
73688;SHT30;62257;48.376;-4.378;2022-07-19T19:58:39;21.15;72.58
73688;SHT30;62257;48.376;-4.378;2022-07-19T20:01:04;21.09;73.21
73688;SHT30;62257;48.376;-4.378;2022-07-19T20:03:30;21.04;74.78
73688;SHT30;62257;48.376;-4.378;2022-07-19T20:05:55;20.97;72.74
73688;SHT30;62257;48.376;-4.378;2022-07-19T20:08:20;20.95;74.39
73688;SHT30;62257;48.376;-4.378;2022-07-19T20:10:46;20.91;82.09
73688;SHT30;62257;48.376;-4.378;2022-07-19T20:13:11;20.85;74.30
73688;SHT30;62257;48.376;-4.378;2022-07-19T20:15:38;20.77;75.73
73688;SHT30;62257;48.376;-4.378;2022-07-19T20:18:04;20.73;75.05
73688;SHT30;62257;48.376;-4.378;2022-07-19T20:20:30;20.70;78.05
73688;SHT30;62257;48.376;-4.378;2022-07-19T20:22:56;20.70;76.99
73688;SHT30;62257;48.376;-4.378;2022-07-19T20:25:21;20.70;82.30
73688;SHT30;62257;48.376;-4.378;2022-07-19T20:27:47;20.70;76.85
73688;SHT30;62257;48.376;-4.378;2022-07-19T20:30:12;20.66;77.14
73688;SHT30;62257;48.376;-4.378;2022-07-19T20:32:37;20.57;76.26
73688;SHT30;62257;48.376;-4.378;2022-07-19T20:35:03;20.57;78.26
73688;SHT30;62257;48.376;-4.378;2022-07-19T20:37:29;20.54;77.41
73688;SHT30;62257;48.376;-4.378;2022-07-19T20:39:55;20.57;77.58
73688;SHT30;62257;48.376;-4.378;2022-07-19T20:42:20;20.63;78.23
73688;SHT30;62257;48.376;-4.378;2022-07-19T20:44:46;20.60;78.68
73688;SHT30;62257;48.376;-4.378;2022-07-19T20:47:11;20.61;78.96
73688;SHT30;62257;48.376;-4.378;2022-07-19T20:49:37;20.56;77.50
73688;SHT30;62257;48.376;-4.378;2022-07-19T20:52:02;20.54;79.37
73688;SHT30;62257;48.376;-4.378;2022-07-19T20:54:28;20.51;78.31
73688;SHT30;62257;48.376;-4.378;2022-07-19T20:56:53;20.47;78.04
73688;SHT30;62257;48.376;-4.378;2022-07-19T20:59:19;20.46;80.66
73688;SHT30;62257;48.376;-4.378;2022-07-19T21:01:44;20.46;80.92
73688;SHT30;62257;48.376;-4.378;2022-07-19T21:04:10;20.47;78.80
73688;SHT30;62257;48.376;-4.378;2022-07-19T21:06:35;20.43;78.23
73688;SHT30;62257;48.376;-4.378;2022-07-19T21:09:02;20.37;78.76
73688;SHT30;62257;48.376;-4.378;2022-07-19T21:11:27;20.34;79.06
73688;SHT30;62257;48.376;-4.378;2022-07-19T21:13:52;20.32;82.10
73688;SHT30;62257;48.376;-4.378;2022-07-19T21:16:18;20.28;78.87
73688;SHT30;62257;48.376;-4.378;2022-07-19T21:18:43;20.26;81.22
73688;SHT30;62257;48.376;-4.378;2022-07-19T21:21:09;20.30;79.80
73688;SHT30;62257;48.376;-4.378;2022-07-19T21:23:34;20.30;81.24
73688;SHT30;62257;48.376;-4.378;2022-07-19T21:26:00;20.28;81.34
73688;SHT30;62257;48.376;-4.378;2022-07-19T21:28:25;20.25;81.80
73688;SHT30;62257;48.376;-4.378;2022-07-19T21:30:51;20.25;80.77
73688;SHT30;62257;48.376;-4.378;2022-07-19T21:33:16;20.22;80.87
73688;SHT30;62257;48.376;-4.378;2022-07-19T21:35:42;20.22;80.38
73688;SHT30;62257;48.376;-4.378;2022-07-19T21:38:07;20.22;80.01
73688;SHT30;62257;48.376;-4.378;2022-07-19T21:40:33;20.26;81.56
73688;SHT30;62257;48.376;-4.378;2022-07-19T21:42:58;20.29;79.99
73688;SHT30;62257;48.376;-4.378;2022-07-19T21:45:23;20.33;80.35
73688;SHT30;62257;48.376;-4.378;2022-07-19T21:47:50;20.34;79.75
73688;SHT30;62257;48.376;-4.378;2022-07-19T21:50:16;20.33;81.71
73688;SHT30;62257;48.376;-4.378;2022-07-19T21:52:41;20.34;80.19
73688;SHT30;62257;48.376;-4.378;2022-07-19T21:55:08;20.34;80.76
73688;SHT30;62257;48.376;-4.378;2022-07-19T21:57:33;20.32;79.94
73688;SHT30;62257;48.376;-4.378;2022-07-19T21:59:59;20.32;80.32
73688;SHT30;62257;48.376;-4.378;2022-07-19T22:02:24;20.29;80.61
73688;SHT30;62257;48.376;-4.378;2022-07-19T22:04:53;20.21;80.23
73688;SHT30;62257;48.376;-4.378;2022-07-19T22:07:18;20.13;80.62
73688;SHT30;62257;48.376;-4.378;2022-07-19T22:09:44;20.08;80.47
73688;SHT30;62257;48.376;-4.378;2022-07-19T22:12:09;20.05;83.97
73688;SHT30;62257;48.376;-4.378;2022-07-19T22:14:34;20.04;80.58
73688;SHT30;62257;48.376;-4.378;2022-07-19T22:17:00;20.02;82.01
73688;SHT30;62257;48.376;-4.378;2022-07-19T22:19:25;19.96;79.93
73688;SHT30;62257;48.376;-4.378;2022-07-19T22:21:51;19.95;80.35
73688;SHT30;62257;48.376;-4.378;2022-07-19T22:24:16;19.89;80.50
73688;SHT30;62257;48.376;-4.378;2022-07-19T22:26:42;19.95;80.61